createdAt,value
2019-04-29T00:00:45.065Z,7.45
2019-04-29T00:03:12.557Z,7.45
2019-04-29T00:05:39.699Z,7.45
2019-04-29T00:08:06.930Z,7.42
2019-04-29T00:10:34.130Z,7.30
2019-04-29T00:13:01.295Z,7.32
2019-04-29T00:15:46.716Z,7.28
2019-04-29T00:18:22.481Z,7.23
2019-04-29T00:20:50.308Z,7.05
2019-04-29T00:23:17.475Z,7.15
2019-04-29T00:25:44.604Z,7.23
2019-04-29T00:28:12.155Z,7.18
2019-04-29T00:30:39.325Z,7.12
2019-04-29T00:33:06.433Z,7.12
2019-04-29T00:35:33.633Z,7.09
2019-04-29T00:38:19.109Z,7.04
2019-04-29T00:41:04.785Z,7.01
2019-04-29T00:43:45.547Z,7.03
2019-04-29T00:46:12.639Z,7.04
2019-04-29T00:48:39.774Z,7.06
2019-04-29T00:51:06.908Z,6.98
2019-04-29T00:53:34.130Z,6.94
2019-04-29T00:56:01.978Z,6.93
2019-04-29T00:58:29.185Z,6.80
2019-04-29T01:00:56.409Z,6.81
2019-04-29T01:03:23.466Z,6.77
2019-04-29T01:05:50.589Z,6.81
2019-04-29T01:08:17.807Z,6.67
2019-04-29T01:10:44.892Z,6.67
2019-04-29T01:13:12.025Z,6.62
2019-04-29T01:15:39.069Z,6.80
2019-04-29T01:18:06.134Z,6.87
2019-04-29T01:20:33.257Z,6.80
2019-04-29T01:23:00.362Z,6.83
2019-04-29T01:25:27.435Z,6.72
2019-04-29T01:28:10.974Z,6.63
2019-04-29T01:30:56.194Z,6.61
2019-04-29T01:33:23.468Z,6.63
2019-04-29T01:35:54.277Z,6.58
2019-04-29T01:38:21.333Z,6.61
2019-04-29T01:40:58.984Z,6.48
2019-04-29T01:43:45.647Z,6.50
2019-04-29T01:46:12.800Z,6.49
2019-04-29T01:48:39.795Z,6.49
2019-04-29T01:51:06.803Z,6.31
2019-04-29T01:53:33.923Z,6.27
2019-04-29T01:56:00.949Z,6.42
2019-04-29T01:58:28.008Z,6.34
2019-04-29T02:00:55.075Z,6.30
2019-04-29T02:03:22.149Z,6.20
2019-04-29T02:05:49.258Z,6.13
2019-04-29T02:08:16.553Z,6.26
2019-04-29T02:10:43.665Z,6.29
2019-04-29T02:13:10.778Z,6.16
2019-04-29T02:15:37.857Z,6.23
2019-04-29T02:18:04.911Z,6.29
2019-04-29T02:20:31.928Z,6.21
2019-04-29T02:23:18.534Z,6.12
2019-04-29T02:25:46.049Z,6.22
2019-04-29T02:28:13.102Z,6.11
2019-04-29T02:30:45.457Z,6.07
2019-04-29T02:33:12.535Z,5.97
2019-04-29T02:35:39.883Z,5.84
2019-04-29T02:38:09.414Z,5.94
2019-04-29T02:40:44.017Z,6.07
2019-04-29T02:43:16.426Z,6.08
2019-04-29T02:45:43.425Z,6.02
2019-04-29T02:48:10.479Z,6.05
2019-04-29T02:50:37.512Z,5.84
2019-04-29T02:53:04.533Z,5.87
2019-04-29T02:55:38.541Z,6.01
2019-04-29T02:58:12.668Z,5.85
2019-04-29T03:00:59.378Z,5.86
2019-04-29T03:03:38.056Z,5.82
2019-04-29T03:06:05.311Z,5.89
2019-04-29T03:09:30.333Z,5.89
2019-04-29T03:12:31.085Z,5.92
2019-04-29T03:18:53.825Z,5.86
2019-04-29T03:21:28.301Z,5.86
2019-04-29T03:23:55.369Z,5.74
2019-04-29T03:26:22.405Z,5.77
2019-04-29T03:28:49.488Z,5.72
2019-04-29T03:31:16.471Z,5.81
2019-04-29T03:33:43.533Z,5.82
2019-04-29T03:36:10.523Z,5.72
2019-04-29T03:38:37.541Z,5.81
2019-04-29T03:41:04.550Z,5.88
2019-04-29T03:43:31.588Z,5.79
2019-04-29T03:45:58.605Z,5.83
2019-04-29T03:48:25.645Z,5.89
2019-04-29T03:50:52.674Z,5.80
2019-04-29T03:53:19.683Z,5.85
2019-04-29T03:55:46.716Z,5.92
2019-04-29T03:58:13.720Z,5.93
2019-04-29T04:00:44.296Z,5.83
2019-04-29T04:03:26.845Z,5.81
2019-04-29T04:06:08.448Z,5.87
2019-04-29T04:08:38.104Z,5.90
2019-04-29T04:11:05.161Z,5.93
2019-04-29T04:13:32.154Z,5.93
2019-04-29T04:15:59.410Z,5.84
2019-04-29T04:18:33.253Z,5.91
2019-04-29T04:21:00.301Z,5.95
2019-04-29T04:23:27.295Z,5.96
2019-04-29T04:25:54.343Z,6.04
2019-04-29T04:28:21.357Z,6.06
2019-04-29T04:30:48.423Z,6.03
2019-04-29T04:33:15.434Z,6.06
2019-04-29T04:35:42.474Z,6.07
2019-04-29T04:38:09.506Z,6.23
2019-04-29T04:40:41.361Z,6.26
2019-04-29T04:43:08.379Z,6.27
2019-04-29T04:45:35.399Z,6.20
2019-04-29T04:48:02.559Z,6.18
2019-04-29T04:50:29.693Z,6.35
2019-04-29T04:52:56.755Z,6.43
2019-04-29T04:55:26.967Z,6.38
2019-04-29T04:57:53.991Z,6.32
2019-04-29T05:00:22.580Z,6.44
2019-04-29T05:02:49.657Z,6.46
2019-04-29T05:05:16.782Z,6.49
2019-04-29T05:07:43.910Z,6.68
2019-04-29T05:10:11.615Z,6.65
2019-04-29T05:12:38.631Z,6.72
2019-04-29T05:15:05.724Z,7.01
2019-04-29T05:17:32.855Z,7.12
2019-04-29T05:19:59.911Z,7.21
2019-04-29T05:22:26.940Z,7.30
2019-04-29T05:24:53.977Z,7.50
2019-04-29T05:27:21.015Z,7.61
2019-04-29T05:29:48.057Z,7.88
2019-04-29T05:32:15.155Z,7.91
2019-04-29T05:34:46.522Z,8.00
2019-04-29T05:37:19.886Z,8.02
2019-04-29T05:39:47.004Z,8.20
2019-04-29T05:42:17.043Z,8.21
2019-04-29T05:45:02.574Z,8.50
2019-04-29T05:47:35.753Z,8.53
2019-04-29T05:50:37.805Z,8.55
2019-04-29T05:53:27.220Z,8.74
2019-04-29T05:55:54.327Z,8.71
2019-04-29T05:58:21.388Z,8.81
2019-04-29T06:01:01.331Z,8.87
2019-04-29T06:03:28.509Z,9.04
2019-04-29T06:05:55.555Z,9.15
2019-04-29T06:08:22.718Z,9.32
2019-04-29T06:10:49.787Z,9.34
2019-04-29T06:13:16.799Z,9.55
2019-04-29T06:15:43.818Z,9.54
2019-04-29T06:18:10.923Z,9.71
2019-04-29T06:20:37.961Z,9.87
2019-04-29T06:23:04.997Z,10.08
2019-04-29T06:25:32.058Z,10.28
2019-04-29T06:27:59.132Z,10.34
2019-04-29T06:30:26.146Z,10.53
2019-04-29T06:32:53.218Z,10.35
2019-04-29T06:35:20.256Z,10.40
2019-04-29T06:37:47.282Z,10.58
2019-04-29T06:40:14.550Z,10.69
2019-04-29T06:42:41.586Z,10.92
2019-04-29T06:45:08.664Z,11.09
2019-04-29T06:47:35.680Z,10.93
2019-04-29T06:50:03.696Z,11.08
2019-04-29T08:02:32.798Z,13.74
2019-04-29T08:04:59.839Z,13.64
2019-04-29T08:07:27.370Z,13.49
2019-04-29T08:09:54.783Z,13.84
2019-04-29T08:12:23.275Z,14.24
2019-04-29T08:14:53.406Z,14.61
2019-04-29T08:17:20.845Z,14.40
2019-04-29T08:19:47.842Z,14.44
2019-04-29T08:22:18.086Z,14.39
2019-04-29T08:24:45.949Z,14.51
2019-04-29T08:27:12.843Z,14.45
2019-04-29T08:29:39.886Z,14.81
2019-04-29T08:32:06.961Z,14.85
2019-04-29T08:34:33.972Z,14.87
2019-04-29T08:37:01.006Z,14.95
2019-04-29T08:39:29.323Z,15.04
2019-04-29T08:42:02.929Z,15.07
2019-04-29T08:44:35.992Z,15.35
2019-04-29T08:47:22.939Z,15.45
2019-04-29T08:49:51.663Z,15.43
2019-04-29T08:52:18.718Z,15.33
2019-04-29T08:54:45.770Z,14.87
2019-04-29T08:57:12.818Z,15.20
2019-04-29T08:59:39.852Z,15.17
2019-04-29T09:02:10.340Z,15.14
2019-04-29T09:04:35.947Z,15.75
2019-04-29T09:07:12.502Z,16.09
2019-04-29T09:09:31.916Z,15.71
2019-04-29T09:11:58.975Z,15.76
2019-04-29T09:14:26.081Z,15.68
2019-04-29T09:16:53.202Z,15.39
2019-04-29T09:19:20.263Z,15.81
2019-04-29T09:21:50.371Z,15.40
2019-04-29T09:24:17.397Z,15.25
2019-04-29T09:26:49.685Z,15.33
2019-04-29T09:29:36.363Z,15.91
2019-04-29T09:32:04.822Z,15.71
2019-04-29T09:34:31.857Z,16.09
2019-04-29T09:36:58.885Z,16.40
2019-04-29T09:39:25.960Z,16.11
2019-04-29T09:42:14.808Z,16.86
2019-04-29T09:45:19.558Z,15.86
2019-04-29T09:47:45.574Z,16.36
2019-04-29T09:50:12.586Z,16.98
2019-04-29T09:52:39.643Z,16.11
2019-04-29T09:55:06.857Z,16.80
2019-04-29T09:57:33.933Z,17.15
2019-04-29T10:00:07.374Z,17.07
2019-04-29T10:02:43.621Z,16.71
2019-04-29T10:05:30.724Z,16.76
2019-04-29T10:07:57.750Z,17.19
2019-04-29T10:10:24.915Z,17.09
2019-04-29T10:12:53.858Z,16.96
2019-04-29T10:15:27.955Z,17.14
2019-04-29T10:18:00.492Z,16.91
2019-04-29T10:20:50.134Z,16.47
2019-04-29T10:23:17.250Z,16.78
2019-04-29T10:25:44.342Z,16.95
2019-04-29T10:28:11.278Z,17.07
2019-04-29T10:30:38.352Z,17.78
2019-04-29T10:33:05.366Z,17.75
2019-04-29T10:35:32.523Z,16.58
2019-04-29T10:38:11.652Z,16.89
2019-04-29T10:41:00.520Z,17.00
2019-04-29T10:43:44.357Z,17.21
2019-04-29T10:46:29.693Z,16.16
2019-04-29T10:49:03.759Z,15.53
2019-04-29T10:51:30.976Z,16.01
2019-04-29T10:53:58.828Z,16.13
2019-04-29T10:56:25.869Z,17.41
2019-04-29T10:58:53.016Z,18.13
2019-04-29T11:02:19.518Z,17.71
2019-04-29T11:04:48.176Z,16.41
2019-04-29T11:07:31.022Z,17.12
2019-04-29T11:10:01.511Z,16.95
2019-04-29T11:12:28.512Z,17.95
2019-04-29T11:14:55.628Z,17.98
2019-04-29T11:17:24.944Z,18.28
2019-04-29T11:19:51.992Z,17.19
2019-04-29T11:22:21.186Z,17.84
2019-04-29T11:25:01.805Z,17.63
2019-04-29T11:27:34.749Z,18.56
2019-04-29T11:30:02.885Z,18.53
2019-04-29T11:32:37.837Z,18.00
2019-04-29T11:35:15.519Z,17.73
2019-04-29T11:37:42.583Z,17.29
2019-04-29T11:40:09.734Z,17.60
2019-04-29T11:42:41.476Z,17.67
2019-04-29T11:45:08.432Z,18.57
2019-04-29T11:47:35.502Z,17.70
2019-04-29T11:50:26.916Z,18.03
2019-04-29T11:52:55.624Z,18.17
2019-04-29T11:55:22.835Z,17.52
2019-04-29T11:58:04.542Z,17.73
2019-04-29T12:00:56.838Z,17.93
2019-04-29T12:03:27.925Z,16.74
2019-04-29T12:06:02.769Z,16.85
2019-04-29T12:08:29.839Z,17.37
2019-04-29T12:11:06.700Z,17.87
2019-04-29T12:13:33.241Z,18.53
2019-04-29T12:16:08.289Z,17.77
2019-04-29T12:18:39.863Z,17.34
2019-04-29T12:21:28.092Z,16.80
2019-04-29T12:23:57.680Z,18.52
2019-04-29T12:26:24.926Z,18.89
2019-04-29T12:28:51.996Z,18.50
2019-04-29T12:31:37.470Z,19.27
2019-04-29T12:34:18.111Z,18.87
2019-04-29T12:36:55.844Z,18.55
2019-04-29T12:39:51.941Z,18.66
2019-04-29T12:42:55.178Z,18.38
2019-04-29T12:45:36.906Z,18.26
2019-04-29T12:48:06.442Z,18.80
2019-04-29T12:50:33.186Z,19.17
2019-04-29T12:53:00.286Z,18.14
2019-04-29T12:55:44.064Z,17.58
2019-04-29T12:58:04.340Z,17.60
2019-04-29T13:00:46.435Z,18.53
2019-04-29T13:03:16.975Z,18.43
2019-04-29T13:05:59.843Z,18.21
2019-04-29T13:08:37.805Z,19.18
2019-04-29T13:11:05.882Z,18.20
2019-04-29T13:13:32.948Z,17.94
2019-04-29T13:16:20.060Z,17.99
2019-04-29T13:19:11.537Z,17.94
2019-04-29T13:21:30.940Z,18.13
2019-04-29T13:24:12.878Z,17.97
2019-04-29T13:26:28.538Z,19.04
2019-04-29T13:29:01.147Z,18.69
2019-04-29T13:31:37.503Z,19.57
2019-04-29T13:33:55.718Z,19.23
2019-04-29T13:36:26.086Z,18.61
2019-04-29T13:38:51.662Z,18.75
2019-04-29T13:41:24.305Z,18.98
2019-04-29T13:43:48.601Z,19.36
2019-04-29T13:46:25.687Z,18.58
2019-04-29T13:49:13.833Z,18.26
2019-04-29T13:51:41.173Z,18.57
2019-04-29T13:54:08.199Z,18.07
2019-04-29T13:56:54.067Z,18.90
2019-04-29T13:59:10.573Z,19.43
2019-04-29T14:01:59.943Z,18.46
2019-04-29T14:04:26.019Z,18.48
2019-04-29T14:06:57.043Z,18.38
2019-04-29T14:09:22.233Z,18.32
2019-04-29T14:12:01.091Z,18.18
2019-04-29T14:14:22.766Z,18.77
2019-04-29T14:16:48.600Z,18.46
2019-04-29T14:19:20.604Z,18.84
2019-04-29T14:21:44.853Z,19.08
2019-04-29T14:24:11.925Z,19.13
2019-04-29T14:26:41.862Z,19.07
2019-04-29T14:29:07.961Z,19.52
2019-04-29T14:31:35.020Z,19.67
2019-04-29T14:34:24.350Z,18.72
2019-04-29T14:36:51.390Z,19.33
2019-04-29T14:39:35.920Z,19.24
2019-04-29T14:41:55.439Z,18.87
2019-04-29T14:44:41.074Z,19.01
2019-04-29T14:47:33.604Z,19.75
2019-04-29T14:50:10.705Z,19.21
2019-04-29T14:52:36.683Z,18.39
2019-04-29T14:55:04.444Z,19.39
2019-04-29T14:57:31.687Z,18.52
2019-04-29T14:59:59.003Z,18.83
2019-04-29T15:02:26.778Z,17.94
2019-04-29T15:04:53.949Z,18.23
2019-04-29T15:07:21.091Z,18.55
2019-04-29T15:09:55.879Z,18.47
2019-04-29T15:12:28.754Z,18.14
2019-04-29T15:15:03.619Z,18.32
2019-04-29T15:17:40.368Z,17.92
2019-04-29T15:20:25.076Z,18.58
2019-04-29T15:22:50.621Z,18.33
2019-04-29T15:25:20.999Z,18.06
2019-04-29T15:27:46.640Z,18.11
2019-04-29T15:30:16.181Z,18.38
2019-04-29T15:32:43.202Z,18.46
2019-04-29T15:35:10.238Z,18.73
2019-04-29T15:37:37.323Z,18.00
2019-04-29T15:40:05.069Z,17.98
2019-04-29T15:42:32.244Z,17.60
2019-04-29T15:46:21.272Z,17.67
2019-04-29T16:07:51.582Z,17.70
2019-04-29T16:12:29.595Z,17.30
2019-04-29T16:14:35.667Z,17.63
2019-04-29T16:17:20.593Z,17.34
2019-04-29T16:20:07.274Z,17.20
2019-04-29T16:23:45.878Z,17.58
2019-04-29T16:30:51.145Z,16.90
2019-04-29T16:32:57.403Z,16.76
2019-04-29T16:35:50.262Z,16.60
2019-04-29T16:38:17.888Z,17.00
2019-04-29T16:41:32.363Z,16.86
2019-04-29T16:44:04.021Z,17.11
2019-04-29T16:50:14.808Z,16.94
2019-04-29T16:52:45.959Z,16.59
2019-04-29T16:56:00.484Z,16.70
2019-04-29T16:59:09.407Z,16.91
2019-04-29T17:01:36.926Z,16.86
2019-04-29T17:04:05.288Z,16.30
2019-04-29T17:14:13.119Z,16.59
2019-04-29T17:17:29.024Z,16.52
2019-04-29T17:23:28.038Z,16.18
2019-04-29T17:25:55.056Z,16.36
2019-04-29T17:28:31.098Z,16.09
2019-04-29T17:31:12.539Z,15.74
2019-04-29T17:33:51.291Z,15.74
2019-04-29T17:36:23.619Z,15.88
2019-04-29T17:38:47.875Z,15.73
2019-04-29T17:41:14.945Z,15.72
2019-04-29T17:44:07.448Z,15.62
2019-04-29T17:46:54.127Z,15.65
2019-04-29T17:49:37.299Z,15.64
2019-04-29T17:52:09.631Z,15.33
2019-04-29T17:54:39.859Z,15.44
2019-04-29T17:57:31.786Z,15.70
2019-04-29T18:00:27.711Z,15.29
2019-04-29T18:03:12.951Z,15.53
2019-04-29T18:05:54.950Z,15.71
2019-04-29T18:08:40.091Z,15.52
2019-04-29T18:11:08.218Z,15.48
2019-04-29T18:13:35.473Z,15.48
2019-04-29T18:16:04.685Z,15.16
2019-04-29T18:19:01.709Z,15.13
2019-04-29T18:21:47.429Z,15.14
2019-04-29T18:24:46.359Z,15.04
2019-04-29T18:27:15.868Z,15.17
2019-04-29T18:29:43.140Z,14.97
2019-04-29T18:32:10.577Z,14.91
2019-04-29T18:34:37.697Z,14.90
2019-04-29T18:37:06.499Z,14.97
2019-04-29T18:39:33.982Z,15.22
2019-04-29T18:42:03.120Z,15.06
2019-04-29T18:44:30.055Z,14.86
2019-04-29T18:46:57.377Z,14.81
2019-04-29T18:49:25.815Z,14.66
2019-04-29T18:51:52.945Z,14.79
2019-04-29T18:54:20.154Z,14.52
2019-04-29T18:56:47.215Z,14.81
2019-04-29T18:59:15.977Z,14.85
2019-04-29T19:01:45.021Z,14.58
2019-04-29T19:04:22.309Z,14.48
2019-04-29T19:06:51.315Z,13.95
2019-04-29T19:09:20.944Z,14.10
2019-04-29T19:11:48.083Z,14.16
2019-04-29T19:14:15.218Z,14.23
2019-04-29T19:16:42.343Z,14.20
2019-04-29T19:19:09.340Z,14.40
2019-04-29T19:21:36.412Z,14.40
2019-04-29T19:24:04.849Z,14.28
2019-04-29T19:26:32.031Z,14.22
2019-04-29T19:29:01.302Z,14.24
2019-04-29T19:31:28.098Z,14.44
2019-04-29T19:33:57.230Z,14.21
2019-04-29T19:36:24.254Z,14.23
2019-04-29T19:38:51.399Z,14.02
2019-04-29T19:41:18.576Z,14.00
2019-04-29T19:43:48.268Z,14.03
2019-04-29T19:46:22.580Z,14.05
2019-04-29T19:48:45.113Z,13.97
2019-04-29T19:51:16.112Z,14.20
2019-04-29T19:53:43.473Z,14.13
2019-04-29T19:56:12.712Z,13.88
2019-04-29T19:58:40.031Z,14.04
2019-04-29T20:01:13.981Z,13.78
2019-04-29T20:03:50.134Z,13.99
2019-04-29T20:06:24.904Z,13.87
2019-04-29T20:08:53.813Z,13.64
2019-04-29T20:11:17.601Z,13.49
2019-04-29T20:13:58.437Z,13.39
2019-04-29T20:16:40.366Z,13.37
2019-04-29T20:19:16.459Z,13.44
2019-04-29T20:21:41.011Z,13.25
2019-04-29T20:24:09.806Z,13.18
2019-04-29T20:26:37.257Z,13.10
2019-04-29T20:29:07.114Z,13.35
2019-04-29T20:31:35.627Z,13.47
2019-04-29T20:34:02.656Z,13.32
2019-04-29T20:36:40.838Z,13.35
2019-04-29T20:38:58.930Z,13.03
2019-04-29T20:41:40.094Z,12.90
2019-04-29T20:43:56.265Z,12.98
2019-04-29T20:46:23.507Z,13.04
2019-04-29T20:48:57.464Z,12.81
2019-04-29T20:51:23.302Z,12.71
2019-04-29T20:53:58.150Z,12.57
2019-04-29T20:56:28.999Z,12.90
2019-04-29T20:58:55.160Z,12.93
2019-04-29T21:01:30.800Z,12.78
2019-04-29T21:03:58.084Z,13.02
2019-04-29T21:06:25.158Z,13.05
2019-04-29T21:08:52.322Z,13.03
2019-04-29T21:11:32.060Z,12.98
2019-04-29T21:14:21.602Z,12.85
2019-04-29T21:16:49.411Z,12.76
2019-04-29T21:19:16.548Z,12.80
2019-04-29T21:21:45.596Z,12.85
2019-04-29T21:24:18.289Z,12.95
2019-04-29T21:26:44.419Z,12.90
2019-04-29T21:29:15.147Z,12.76
2019-04-29T21:31:39.747Z,12.96
2019-04-29T21:34:06.797Z,13.03
2019-04-29T21:37:08.573Z,13.10
2019-04-29T21:39:55.061Z,12.99
2019-04-29T21:42:55.405Z,12.76
2019-04-29T21:45:22.698Z,12.78
2019-04-29T21:47:54.337Z,13.06
2019-04-29T21:50:21.678Z,12.94
2019-04-29T21:52:48.736Z,12.78
2019-04-29T21:55:16.320Z,12.78
2019-04-29T21:57:45.087Z,12.92
2019-04-29T22:00:12.955Z,12.90
2019-04-29T22:02:41.608Z,12.96
2019-04-29T22:05:09.541Z,12.74
2019-04-29T22:07:39.781Z,12.76
2019-04-29T22:10:20.053Z,12.74
2019-04-29T22:12:45.016Z,12.66
2019-04-29T22:15:15.823Z,12.49
2019-04-29T22:17:54.388Z,12.66
2019-04-29T22:20:12.923Z,12.70
2019-04-29T22:22:40.294Z,12.72
2019-04-29T22:25:10.003Z,12.70
2019-04-29T22:27:39.327Z,12.71
2019-04-29T22:30:10.226Z,12.40
2019-04-29T22:32:39.152Z,12.50
2019-04-29T22:35:06.689Z,12.52
2019-04-29T22:37:37.157Z,12.56
2019-04-29T22:40:09.071Z,12.46
2019-04-29T22:42:45.763Z,12.59
2019-04-29T22:45:13.527Z,12.22
2019-04-29T22:47:40.593Z,12.52
2019-04-29T22:50:07.620Z,12.39
2019-04-29T22:52:34.882Z,12.47
2019-04-29T22:55:05.533Z,12.70
2019-04-29T22:57:32.764Z,12.45
2019-04-29T22:59:59.814Z,12.68
2019-04-29T23:02:28.445Z,12.10
2019-04-29T23:04:55.836Z,12.26
2019-04-29T23:07:23.464Z,12.25
2019-04-29T23:09:50.601Z,12.29
2019-04-29T23:12:18.641Z,12.41
2019-04-29T23:14:45.962Z,12.23
2019-04-29T23:17:13.423Z,12.47
2019-04-29T23:19:41.548Z,12.51
2019-04-29T23:22:34.033Z,12.57
2019-04-29T23:25:08.500Z,12.65
2019-04-29T23:27:36.028Z,12.51
2019-04-29T23:30:04.513Z,12.33
2019-04-29T23:32:31.577Z,12.59
2019-04-29T23:35:01.661Z,12.66
2019-04-29T23:37:29.476Z,12.46
2019-04-29T23:39:56.701Z,12.50
2019-04-29T23:42:23.729Z,12.28
2019-04-29T23:44:50.788Z,12.29
2019-04-29T23:47:17.896Z,12.47
2019-04-29T23:49:46.746Z,12.28
2019-04-29T23:52:17.641Z,12.46
2019-04-29T23:54:46.935Z,12.17
2019-04-29T23:57:29.994Z,12.15
